createdAt,value
2022-11-27T00:01:10.927Z,96.43
2022-11-27T00:04:13.955Z,97.33
2022-11-27T00:07:16.783Z,97.34
2022-11-27T00:10:19.742Z,97.31
2022-11-27T00:13:23.930Z,96.93
2022-11-27T00:16:27.720Z,96.98
2022-11-27T00:19:30.539Z,97.08
2022-11-27T00:22:33.294Z,96.73
2022-11-27T00:25:36.029Z,96.82
2022-11-27T00:28:40.246Z,97.00
2022-11-27T00:31:43.049Z,97.16
2022-11-27T00:34:45.884Z,97.95
2022-11-27T00:37:48.647Z,98.19
2022-11-27T00:40:51.373Z,98.39
2022-11-27T00:43:56.437Z,98.07
2022-11-27T00:46:59.202Z,98.13
2022-11-27T00:50:01.991Z,97.43
2022-11-27T00:53:04.736Z,98.40
2022-11-27T00:56:08.095Z,98.77
2022-11-27T00:59:12.653Z,98.88
2022-11-27T01:02:15.459Z,98.13
2022-11-27T01:05:18.294Z,98.57
2022-11-27T01:08:21.269Z,98.75
2022-11-27T01:11:26.642Z,98.57
2022-11-27T01:14:30.843Z,98.58
2022-11-27T01:17:33.724Z,98.51
2022-11-27T01:20:39.362Z,98.31
2022-11-27T01:23:42.312Z,98.24
2022-11-27T01:26:46.065Z,98.12
2022-11-27T01:29:50.137Z,97.78
2022-11-27T01:32:52.971Z,97.99
2022-11-27T01:35:57.303Z,97.43
2022-11-27T01:39:01.114Z,97.39
2022-11-27T01:42:04.374Z,97.04
2022-11-27T01:45:11.958Z,96.71
2022-11-27T01:48:15.579Z,97.45
2022-11-27T01:51:19.515Z,97.21
2022-11-27T01:54:23.987Z,97.01
2022-11-27T01:57:29.795Z,96.73
2022-11-27T02:00:34.327Z,96.05
2022-11-27T02:03:37.287Z,95.67
2022-11-27T02:06:40.311Z,96.16
2022-11-27T02:09:43.275Z,96.04
2022-11-27T02:12:54.404Z,96.00
2022-11-27T02:16:15.069Z,95.36
2022-11-27T02:19:34.356Z,95.37
2022-11-27T02:22:51.466Z,95.05
2022-11-27T02:26:10.756Z,95.42
2022-11-27T02:29:16.593Z,95.80
2022-11-27T02:32:24.578Z,96.00
2022-11-27T02:35:30.828Z,95.00
2022-11-27T02:38:39.292Z,95.17
2022-11-27T02:41:49.570Z,95.09
2022-11-27T02:44:59.541Z,95.40
2022-11-27T02:48:02.386Z,95.18
2022-11-27T02:51:07.532Z,94.21
2022-11-27T02:54:14.826Z,94.44
2022-11-27T02:57:19.887Z,94.04
2022-11-27T03:00:25.126Z,93.70
2022-11-27T03:03:32.840Z,93.80
2022-11-27T03:06:40.496Z,94.23
2022-11-27T03:09:47.385Z,93.87
2022-11-27T03:12:50.708Z,94.06
2022-11-27T03:16:09.899Z,93.63
2022-11-27T03:19:18.600Z,93.04
2022-11-27T03:22:21.489Z,92.97
2022-11-27T03:25:24.931Z,93.38
2022-11-27T03:28:29.673Z,93.70
2022-11-27T03:31:34.278Z,93.86
2022-11-27T03:34:37.763Z,94.21
2022-11-27T03:37:40.778Z,93.91
2022-11-27T03:40:50.757Z,93.94
2022-11-27T03:44:06.777Z,94.33
2022-11-27T03:47:19.149Z,93.71
2022-11-27T03:50:33.117Z,94.52
2022-11-27T03:53:48.440Z,94.55
2022-11-27T03:56:57.744Z,95.03
2022-11-27T04:00:04.926Z,94.78
2022-11-27T04:03:11.143Z,94.95
2022-11-27T04:06:13.915Z,94.98
2022-11-27T04:09:17.005Z,94.66
2022-11-27T04:12:19.705Z,95.00
2022-11-27T04:15:22.579Z,94.53
2022-11-27T04:18:26.627Z,95.00
2022-11-27T04:21:29.352Z,94.73
2022-11-27T04:24:32.049Z,94.76
2022-11-27T04:27:34.816Z,94.55
2022-11-27T04:30:37.818Z,94.55
2022-11-27T04:33:42.527Z,94.82
2022-11-27T04:36:46.582Z,94.79
2022-11-27T04:39:49.233Z,95.04
2022-11-27T04:42:52.160Z,94.95
2022-11-27T04:45:54.891Z,94.59
2022-11-27T04:48:59.087Z,94.78
2022-11-27T04:52:02.023Z,94.87
2022-11-27T04:55:05.338Z,95.16
2022-11-27T04:58:08.095Z,95.08
2022-11-27T05:01:10.929Z,95.31
2022-11-27T05:04:15.052Z,95.56
2022-11-27T05:07:17.771Z,95.31
2022-11-27T05:10:20.467Z,95.43
2022-11-27T05:13:23.185Z,95.73
2022-11-27T05:16:25.963Z,95.47
2022-11-27T05:19:31.707Z,95.05
2022-11-27T05:22:34.481Z,94.84
2022-11-27T05:25:37.347Z,94.95
2022-11-27T05:28:40.058Z,94.47
2022-11-27T05:31:44.285Z,94.50
2022-11-27T05:34:49.634Z,94.61
2022-11-27T05:37:52.366Z,95.37
2022-11-27T05:40:55.087Z,95.02
2022-11-27T05:43:57.809Z,95.25
2022-11-27T05:47:00.561Z,95.18
2022-11-27T05:50:05.467Z,95.49
2022-11-27T05:53:08.481Z,95.40
2022-11-27T05:56:14.455Z,95.36
2022-11-27T05:59:17.154Z,95.87
2022-11-27T06:02:22.695Z,96.21
2022-11-27T06:05:30.505Z,96.33
2022-11-27T06:08:33.278Z,96.29
2022-11-27T06:11:35.981Z,96.31
2022-11-27T06:14:39.023Z,96.32
2022-11-27T06:17:42.081Z,96.73
2022-11-27T06:20:52.747Z,96.72
2022-11-27T06:23:56.995Z,96.63
2022-11-27T06:26:59.734Z,96.52
2022-11-27T06:30:03.153Z,96.29
2022-11-27T06:33:05.885Z,96.54
2022-11-27T06:36:11.026Z,96.56
2022-11-27T06:39:13.789Z,96.46
2022-11-27T06:42:16.622Z,96.05
2022-11-27T06:45:19.307Z,96.39
2022-11-27T06:48:22.013Z,96.84
2022-11-27T06:51:27.800Z,96.70
2022-11-27T06:54:30.528Z,97.11
2022-11-27T06:57:33.212Z,97.22
2022-11-27T07:00:36.048Z,97.35
2022-11-27T07:03:38.859Z,97.18
2022-11-27T07:06:43.630Z,97.04
2022-11-27T07:09:46.507Z,96.74
2022-11-27T07:12:49.353Z,96.57
2022-11-27T07:15:52.080Z,96.39
2022-11-27T07:18:56.027Z,96.64
2022-11-27T07:22:00.070Z,96.24
2022-11-27T07:25:04.254Z,95.65
2022-11-27T07:28:06.933Z,96.08
2022-11-27T07:31:09.833Z,95.47
2022-11-27T07:34:17.076Z,95.38
2022-11-27T07:37:25.220Z,95.52
2022-11-27T07:40:28.078Z,96.10
2022-11-27T07:43:31.573Z,96.20
2022-11-27T07:46:34.349Z,96.05
2022-11-27T07:49:37.045Z,96.51
2022-11-27T07:52:42.298Z,95.98
2022-11-27T07:55:45.163Z,95.09
2022-11-27T07:58:48.531Z,94.62
2022-11-27T08:01:51.317Z,94.55
2022-11-27T08:04:54.122Z,94.49
2022-11-27T08:08:00.825Z,94.63
2022-11-27T08:11:03.613Z,94.84
2022-11-27T08:14:08.215Z,95.10
2022-11-27T08:17:13.780Z,95.34
2022-11-27T08:20:16.601Z,94.79
2022-11-27T08:23:20.622Z,94.77
2022-11-27T08:26:23.321Z,94.03
2022-11-27T08:29:31.158Z,94.62
2022-11-27T08:32:40.085Z,95.02
2022-11-27T08:35:49.199Z,95.01
2022-11-27T08:38:53.401Z,95.54
2022-11-27T08:41:56.245Z,95.86
2022-11-27T08:44:58.936Z,95.32
2022-11-27T08:48:01.947Z,93.67
2022-11-27T08:51:08.082Z,94.21
2022-11-27T08:54:12.769Z,94.48
2022-11-27T08:57:15.547Z,94.40
2022-11-27T09:00:22.425Z,94.82
2022-11-27T09:03:27.769Z,95.31
2022-11-27T09:06:33.204Z,95.32
2022-11-27T09:09:37.406Z,95.48
2022-11-27T09:12:43.381Z,95.57
2022-11-27T09:15:46.401Z,95.48
2022-11-27T09:18:51.535Z,95.51
2022-11-27T09:21:54.339Z,95.17
2022-11-27T09:24:58.403Z,95.04
2022-11-27T09:28:02.213Z,94.41
2022-11-27T09:31:07.789Z,93.99
2022-11-27T09:34:10.517Z,93.88
2022-11-27T09:37:13.317Z,94.08
2022-11-27T09:40:18.746Z,94.12
2022-11-27T09:43:29.477Z,93.45
2022-11-27T09:46:38.145Z,93.75
2022-11-27T09:49:44.393Z,93.63
2022-11-27T09:52:52.142Z,93.48
2022-11-27T09:55:59.644Z,93.42
2022-11-27T09:59:03.818Z,93.27
2022-11-27T10:02:16.609Z,92.29
2022-11-27T10:05:23.799Z,92.43
2022-11-27T10:08:37.459Z,91.89
2022-11-27T10:11:53.757Z,91.08
2022-11-27T10:15:05.780Z,91.80
2022-11-27T10:18:15.808Z,91.57
2022-11-27T10:21:28.437Z,91.80
2022-11-27T10:24:38.965Z,91.43
2022-11-27T10:27:49.259Z,91.09
2022-11-27T10:30:56.818Z,91.12
2022-11-27T10:34:03.725Z,91.31
2022-11-27T10:37:13.646Z,89.74
2022-11-27T10:40:24.363Z,90.89
2022-11-27T10:43:28.472Z,88.90
2022-11-27T10:46:37.205Z,89.75
2022-11-27T10:49:41.931Z,89.93
2022-11-27T10:52:52.500Z,90.28
2022-11-27T10:56:16.005Z,87.96
2022-11-27T10:59:27.670Z,86.46
2022-11-27T11:02:34.384Z,88.21
2022-11-27T11:05:57.372Z,88.78
2022-11-27T11:09:05.937Z,88.47
2022-11-27T11:12:09.613Z,85.12
2022-11-27T11:15:14.869Z,87.41
2022-11-27T11:18:18.720Z,88.34
2022-11-27T11:21:27.661Z,88.69
2022-11-27T11:24:32.057Z,88.12
2022-11-27T11:27:34.996Z,87.38
2022-11-27T11:30:39.638Z,86.18
2022-11-27T11:33:53.028Z,86.62
2022-11-27T11:37:02.035Z,85.98
2022-11-27T11:40:14.652Z,84.80
2022-11-27T11:43:26.909Z,84.64
2022-11-27T11:46:33.767Z,82.46
2022-11-27T11:49:37.198Z,82.35
2022-11-27T11:52:53.629Z,82.32
2022-11-27T11:56:06.886Z,84.19
2022-11-27T11:59:18.462Z,84.33
2022-11-27T12:02:41.341Z,84.34
2022-11-27T12:05:58.629Z,84.61
2022-11-27T12:09:17.102Z,83.76
2022-11-27T12:12:36.562Z,83.81
2022-11-27T12:15:45.750Z,82.92
2022-11-27T12:19:03.826Z,83.46
2022-11-27T12:22:19.683Z,83.63
2022-11-27T12:25:33.485Z,83.49
2022-11-27T12:28:58.849Z,83.21
2022-11-27T12:32:28.233Z,83.49
2022-11-27T12:35:39.632Z,80.50
2022-11-27T12:38:58.295Z,81.10
2022-11-27T12:42:12.493Z,83.54
2022-11-27T12:45:19.952Z,84.02
2022-11-27T12:48:28.094Z,84.03
2022-11-27T12:51:37.286Z,82.47
2022-11-27T12:54:47.480Z,82.38
2022-11-27T12:57:54.964Z,81.54
2022-11-27T13:01:03.317Z,83.20
2022-11-27T13:04:19.122Z,83.21
2022-11-27T13:07:27.932Z,83.69
2022-11-27T13:10:36.947Z,84.36
2022-11-27T13:13:44.301Z,84.77
2022-11-27T13:16:51.308Z,84.70
2022-11-27T13:19:54.420Z,82.60
2022-11-27T13:22:58.590Z,84.02
2022-11-27T13:26:05.945Z,85.22
2022-11-27T13:29:16.667Z,85.57
2022-11-27T13:32:22.703Z,86.00
2022-11-27T13:35:30.464Z,85.55
2022-11-27T13:38:37.467Z,85.88
2022-11-27T13:41:43.729Z,86.24
2022-11-27T13:44:55.806Z,86.32
2022-11-27T13:48:02.160Z,86.67
2022-11-27T13:51:06.945Z,87.00
2022-11-27T13:54:13.997Z,86.49
2022-11-27T13:57:18.701Z,86.20
2022-11-27T14:00:32.775Z,85.95
2022-11-27T14:03:36.551Z,86.78
2022-11-27T14:06:39.822Z,87.22
2022-11-27T14:09:48.131Z,87.65
2022-11-27T14:12:54.974Z,87.63
2022-11-27T14:16:04.800Z,87.89
2022-11-27T14:19:28.220Z,88.23
2022-11-27T14:23:07.233Z,88.38
2022-11-27T14:26:19.986Z,87.59
2022-11-27T14:29:23.871Z,88.24
2022-11-27T14:32:36.517Z,88.53
2022-11-27T14:35:41.789Z,89.23
2022-11-27T14:38:48.870Z,89.15
2022-11-27T14:42:00.055Z,89.39
2022-11-27T14:45:05.537Z,88.54
2022-11-27T14:48:08.266Z,88.45
2022-11-27T14:51:17.270Z,88.20
2022-11-27T14:54:25.543Z,89.90
2022-11-27T14:57:31.424Z,89.72
2022-11-27T15:00:34.168Z,90.68
2022-11-27T15:03:37.075Z,91.73
2022-11-27T15:06:42.906Z,92.25
2022-11-27T15:09:48.414Z,92.56
2022-11-27T15:12:52.996Z,92.48
2022-11-27T15:16:01.877Z,92.71
2022-11-27T15:19:07.100Z,92.93
2022-11-27T15:22:17.773Z,92.73
2022-11-27T15:25:36.389Z,92.65
2022-11-27T15:28:41.938Z,92.78
2022-11-27T15:31:52.001Z,93.19
2022-11-27T15:34:55.378Z,93.56
2022-11-27T15:38:04.206Z,93.08
2022-11-27T15:41:06.955Z,93.21
2022-11-27T15:44:11.225Z,93.26
2022-11-27T15:47:23.453Z,93.14
2022-11-27T15:50:26.358Z,93.00
2022-11-27T15:53:29.118Z,93.31
2022-11-27T15:56:31.788Z,93.31
2022-11-27T15:59:35.892Z,93.47
2022-11-27T16:02:38.770Z,93.14
2022-11-27T16:05:41.606Z,93.38
2022-11-27T16:08:44.413Z,93.39
2022-11-27T16:11:47.299Z,93.51
2022-11-27T16:14:51.535Z,93.48
2022-11-27T16:17:54.295Z,93.33
2022-11-27T16:20:57.003Z,93.19
2022-11-27T16:24:00.500Z,93.28
2022-11-27T16:27:03.528Z,91.72
2022-11-27T16:30:09.247Z,92.57
2022-11-27T16:33:11.882Z,92.44
2022-11-27T16:36:17.002Z,92.48
2022-11-27T16:39:19.842Z,92.33
2022-11-27T16:42:22.614Z,92.58
2022-11-27T16:45:26.691Z,90.99
2022-11-27T16:48:29.439Z,91.59
2022-11-27T16:51:33.455Z,92.25
2022-11-27T16:54:36.265Z,92.32
2022-11-27T16:57:39.436Z,92.20
2022-11-27T17:00:43.575Z,91.93
2022-11-27T17:03:46.380Z,90.73
2022-11-27T17:06:50.501Z,90.90
2022-11-27T17:09:53.217Z,91.16
2022-11-27T17:12:55.963Z,91.53
2022-11-27T17:16:03.037Z,91.65
2022-11-27T17:19:05.863Z,91.21
2022-11-27T17:22:08.793Z,91.68
2022-11-27T17:25:11.523Z,92.14
2022-11-27T17:28:14.218Z,91.99
2022-11-27T17:31:20.296Z,91.76
2022-11-27T17:34:23.077Z,91.92
2022-11-27T17:37:25.793Z,92.33
2022-11-27T17:40:30.605Z,90.27
2022-11-27T17:43:33.379Z,90.27
2022-11-27T17:46:39.949Z,92.25
2022-11-27T17:49:42.835Z,93.21
2022-11-27T17:52:45.837Z,93.29
2022-11-27T17:55:48.729Z,93.57
2022-11-27T17:58:51.402Z,93.33
2022-11-27T18:01:55.608Z,93.44
2022-11-27T18:04:58.319Z,93.31
2022-11-27T18:08:01.115Z,93.43
2022-11-27T18:11:06.126Z,93.21
2022-11-27T18:14:08.822Z,93.06
2022-11-27T18:17:17.069Z,92.73
2022-11-27T18:20:19.915Z,93.04
2022-11-27T18:23:23.081Z,93.03
2022-11-27T18:26:45.408Z,93.08
2022-11-27T18:29:50.004Z,91.09
2022-11-27T18:32:54.070Z,92.22
2022-11-27T18:35:56.748Z,92.38
2022-11-27T18:38:59.918Z,91.24
2022-11-27T18:42:05.686Z,89.93
2022-11-27T18:45:31.347Z,91.13
2022-11-27T18:48:34.757Z,92.38
2022-11-27T18:51:37.644Z,92.74
2022-11-27T18:54:40.444Z,92.80
2022-11-27T18:57:43.683Z,92.99
2022-11-27T19:00:46.426Z,93.07
2022-11-27T19:03:50.999Z,93.06
2022-11-27T19:06:53.707Z,92.72
2022-11-27T19:09:56.587Z,90.85
2022-11-27T19:12:59.305Z,90.32
2022-11-27T19:16:06.146Z,90.38
2022-11-27T19:19:49.295Z,91.15
2022-11-27T19:22:33.483Z,90.32
2022-11-27T19:25:38.629Z,90.16
2022-11-27T19:28:41.806Z,91.10
2022-11-27T19:31:44.594Z,91.52
2022-11-27T19:34:50.510Z,91.55
2022-11-27T19:37:53.716Z,91.69
2022-11-27T19:40:56.635Z,91.78
2022-11-27T19:44:01.114Z,91.66
2022-11-27T19:47:04.163Z,91.72
2022-11-27T19:50:09.217Z,91.31
2022-11-27T19:53:12.268Z,91.06
2022-11-27T19:56:15.011Z,90.08
2022-11-27T19:59:21.528Z,88.73
2022-11-27T20:02:30.055Z,89.24
2022-11-27T20:05:34.306Z,90.02
2022-11-27T20:08:37.089Z,90.24
2022-11-27T20:11:39.817Z,90.46
2022-11-27T20:14:42.832Z,88.90
2022-11-27T20:17:45.838Z,87.34
2022-11-27T20:20:50.230Z,87.32
2022-11-27T20:23:54.840Z,86.62
2022-11-27T20:26:57.628Z,86.05
2022-11-27T20:30:01.005Z,86.37
2022-11-27T20:33:07.552Z,87.03
2022-11-27T20:36:16.527Z,86.48
2022-11-27T20:39:21.912Z,87.77
2022-11-27T20:42:24.826Z,87.96
2022-11-27T20:45:28.193Z,89.06
2022-11-27T20:48:31.546Z,89.56
2022-11-27T20:51:35.816Z,89.98
2022-11-27T20:54:38.587Z,89.95
2022-11-27T20:57:41.845Z,89.80
2022-11-27T21:00:44.858Z,87.19
2022-11-27T21:03:49.677Z,86.03
2022-11-27T21:06:53.967Z,87.54
2022-11-27T21:09:56.922Z,87.85
2022-11-27T21:12:59.664Z,85.69
2022-11-27T21:16:02.550Z,86.50
2022-11-27T21:19:07.690Z,87.36
2022-11-27T21:22:11.742Z,86.49
2022-11-27T21:25:14.507Z,85.72
2022-11-27T21:28:17.527Z,86.89
2022-11-27T21:31:22.272Z,87.64
2022-11-27T21:34:26.190Z,86.47
2022-11-27T21:37:30.269Z,84.47
2022-11-27T21:40:33.244Z,86.12
2022-11-27T21:43:36.926Z,86.44
2022-11-27T21:46:39.918Z,86.33
2022-11-27T21:49:43.980Z,85.08
2022-11-27T21:52:48.140Z,85.82
2022-11-27T21:55:50.826Z,85.62
2022-11-27T21:58:53.869Z,85.19
2022-11-27T22:01:57.284Z,84.99
2022-11-27T22:05:00.314Z,86.18
2022-11-27T22:08:05.386Z,83.55
2022-11-27T22:11:09.180Z,82.65
2022-11-27T22:14:11.974Z,81.77
2022-11-27T22:17:14.822Z,82.34
2022-11-27T22:20:17.860Z,83.17
2022-11-27T22:23:22.065Z,84.49
2022-11-27T22:26:25.672Z,85.16
2022-11-27T22:29:28.594Z,85.69
2022-11-27T22:32:31.261Z,86.13
2022-11-27T22:35:33.975Z,86.43
2022-11-27T22:38:38.029Z,86.22
2022-11-27T22:41:41.897Z,86.57
2022-11-27T22:44:44.950Z,86.60
2022-11-27T22:47:47.781Z,87.02
2022-11-27T22:50:56.679Z,86.97
2022-11-27T22:54:01.947Z,87.21
2022-11-27T22:57:04.780Z,87.04
2022-11-27T23:00:09.839Z,86.97
2022-11-27T23:03:12.541Z,87.04
2022-11-27T23:06:17.216Z,86.57
2022-11-27T23:09:21.231Z,85.48
2022-11-27T23:12:23.883Z,85.94
2022-11-27T23:15:26.571Z,86.48
2022-11-27T23:18:29.285Z,86.79
2022-11-27T23:21:35.221Z,85.87
2022-11-27T23:24:39.594Z,83.97
2022-11-27T23:27:43.940Z,83.54
2022-11-27T23:30:46.675Z,83.43
2022-11-27T23:33:49.596Z,84.84
2022-11-27T23:36:52.390Z,84.36
2022-11-27T23:39:56.476Z,84.77
2022-11-27T23:42:59.249Z,84.10
2022-11-27T23:46:03.613Z,83.98
2022-11-27T23:49:06.453Z,84.25
2022-11-27T23:52:14.296Z,84.55
2022-11-27T23:55:20.985Z,85.91
2022-11-27T23:58:23.760Z,86.19
